createdAt,value
2022-10-30T00:00:11.005Z,29.75
2022-10-30T00:02:43.951Z,29.23
2022-10-30T00:05:14.203Z,29.90
2022-10-30T00:07:44.422Z,39.25
2022-10-30T00:10:14.517Z,43.58
2022-10-30T00:12:45.154Z,46.65
2022-10-30T00:15:15.671Z,47.90
2022-10-30T00:18:04.935Z,43.92
2022-10-30T00:20:35.298Z,38.40
2022-10-30T00:23:05.499Z,36.40
2022-10-30T00:25:38.422Z,34.88
2022-10-30T00:28:10.403Z,35.05
2022-10-30T00:30:41.131Z,35.65
2022-10-30T00:33:11.404Z,32.43
2022-10-30T00:35:51.671Z,33.40
2022-10-30T00:38:21.979Z,32.95
2022-10-30T00:40:52.972Z,31.43
2022-10-30T00:43:41.657Z,30.27
2022-10-30T00:46:29.396Z,30.48
2022-10-30T00:49:08.756Z,30.90
2022-10-30T00:51:41.783Z,32.30
2022-10-30T00:54:12.818Z,34.60
2022-10-30T00:56:43.937Z,165.38
2022-10-30T00:59:19.506Z,130.07
2022-10-30T01:01:51.074Z,313.77
2022-10-30T01:04:27.396Z,32.03
2022-10-30T01:07:02.597Z,29.77
2022-10-30T01:09:33.257Z,235.30
2022-10-30T01:12:03.615Z,187.50
2022-10-30T01:14:36.797Z,456.67
2022-10-30T01:17:18.863Z,32.42
2022-10-30T01:20:25.951Z,30.25
2022-10-30T01:23:25.488Z,33.00
2022-10-30T01:26:17.685Z,217.90
2022-10-30T01:29:03.160Z,32.00
2022-10-30T01:31:55.039Z,631.53
2022-10-30T01:35:01.176Z,29.77
2022-10-30T01:37:49.146Z,36.90
2022-10-30T01:40:21.007Z,256.35
2022-10-30T01:42:57.093Z,30.92
2022-10-30T01:45:55.061Z,29.73
2022-10-30T01:48:37.277Z,30.70
2022-10-30T01:51:50.102Z,42.92
2022-10-30T01:55:02.224Z,89.20
2022-10-30T01:58:23.197Z,277.80
2022-10-30T02:03:32.520Z,414.85
2022-10-30T02:06:03.626Z,29.90
2022-10-30T02:08:34.452Z,30.55
2022-10-30T02:11:05.239Z,76.82
2022-10-30T02:13:42.679Z,29.48
2022-10-30T02:16:13.442Z,158.32
2022-10-30T02:18:47.060Z,27.95
2022-10-30T02:21:18.133Z,27.67
2022-10-30T02:23:48.521Z,26.75
2022-10-30T02:26:18.781Z,27.17
2022-10-30T02:28:49.103Z,27.58
2022-10-30T02:31:21.721Z,32.65
2022-10-30T02:33:53.998Z,543.10
2022-10-30T02:36:24.317Z,562.65
2022-10-30T02:38:57.392Z,171.25
2022-10-30T02:41:27.779Z,214.85
2022-10-30T02:43:58.244Z,163.80
2022-10-30T02:46:28.521Z,124.47
2022-10-30T02:48:58.773Z,251.07
2022-10-30T02:51:30.728Z,529.92
2022-10-30T02:54:02.439Z,24.35
2022-10-30T02:56:34.872Z,24.80
2022-10-30T02:59:05.293Z,23.58
2022-10-30T03:01:35.648Z,24.45
2022-10-30T03:04:06.444Z,228.95
2022-10-30T03:06:37.884Z,23.80
2022-10-30T03:11:38.525Z,23.40
2022-10-30T03:14:08.976Z,23.23
2022-10-30T03:16:40.781Z,21.85
2022-10-30T03:19:11.993Z,23.50
2022-10-30T03:21:42.260Z,21.77
2022-10-30T03:24:15.925Z,115.63
2022-10-30T03:26:49.105Z,679.00
2022-10-30T03:31:49.753Z,883.75
2022-10-30T03:34:22.679Z,835.42
2022-10-30T03:36:53.430Z,897.40
2022-10-30T03:39:24.004Z,795.43
2022-10-30T03:41:54.344Z,942.30
2022-10-30T03:44:25.054Z,950.83
2022-10-30T03:46:55.215Z,890.50
2022-10-30T03:49:40.508Z,960.20
2022-10-30T03:52:15.755Z,933.47
2022-10-30T03:54:46.041Z,23.90
2022-10-30T03:57:19.844Z,485.25
2022-10-30T04:00:15.227Z,845.85
2022-10-30T04:02:54.127Z,24.48
2022-10-30T04:05:27.482Z,21.08
2022-10-30T04:08:02.375Z,23.17
2022-10-30T04:10:38.608Z,22.02
2022-10-30T04:13:14.817Z,26.13
2022-10-30T04:15:56.298Z,24.38
2022-10-30T04:18:28.897Z,21.98
2022-10-30T04:21:02.880Z,21.05
2022-10-30T04:23:34.542Z,23.80
2022-10-30T04:26:05.513Z,21.75
2022-10-30T04:28:40.233Z,24.15
2022-10-30T04:31:11.672Z,22.95
2022-10-30T04:33:42.068Z,22.45
2022-10-30T04:36:13.331Z,20.88
2022-10-30T04:38:43.714Z,23.80
2022-10-30T04:41:15.028Z,21.98
2022-10-30T04:43:54.638Z,22.83
2022-10-30T04:46:25.975Z,24.08
2022-10-30T04:49:00.625Z,23.67
2022-10-30T04:51:31.485Z,23.30
2022-10-30T04:54:02.035Z,21.38
2022-10-30T04:56:35.770Z,22.08
2022-10-30T04:59:07.443Z,21.73
2022-10-30T05:01:37.839Z,25.08
2022-10-30T05:04:10.345Z,21.38
2022-10-30T05:06:41.506Z,23.17
2022-10-30T05:09:12.502Z,24.83
2022-10-30T05:11:44.542Z,23.33
2022-10-30T05:14:15.429Z,24.45
2022-10-30T05:16:47.673Z,24.20
2022-10-30T05:19:19.222Z,24.55
2022-10-30T05:21:56.524Z,24.08
2022-10-30T05:24:27.488Z,22.38
2022-10-30T05:26:58.586Z,29.05
2022-10-30T05:29:29.777Z,27.27
2022-10-30T05:32:00.140Z,41.72
2022-10-30T05:34:42.434Z,42.63
2022-10-30T05:37:14.018Z,23.63
2022-10-30T05:42:28.793Z,427.55
2022-10-30T05:45:02.418Z,509.67
2022-10-30T05:47:38.045Z,23.20
2022-10-30T05:50:10.639Z,23.02
2022-10-30T05:52:40.997Z,23.33
2022-10-30T05:55:12.881Z,37.00
2022-10-30T05:58:04.543Z,22.50
2022-10-30T06:00:38.888Z,22.55
2022-10-30T06:03:13.787Z,22.52
2022-10-30T06:05:48.282Z,20.85
2022-10-30T06:08:20.045Z,22.42
2022-10-30T06:10:52.988Z,22.77
2022-10-30T06:13:30.949Z,23.33
2022-10-30T06:16:21.762Z,22.57
2022-10-30T06:19:18.370Z,22.08
2022-10-30T06:21:53.521Z,22.00
2022-10-30T06:24:42.025Z,605.95
2022-10-30T06:27:26.888Z,49.55
2022-10-30T06:29:58.562Z,20.90
2022-10-30T06:32:29.927Z,20.02
2022-10-30T06:35:00.584Z,22.08
2022-10-30T06:37:31.233Z,21.37
2022-10-30T06:40:06.924Z,22.40
2022-10-30T06:42:57.483Z,21.15
2022-10-30T06:45:51.237Z,21.67
2022-10-30T06:48:22.245Z,22.60
2022-10-30T06:51:00.779Z,20.10
2022-10-30T06:53:33.804Z,20.70
2022-10-30T06:56:30.950Z,20.88
2022-10-30T06:59:18.618Z,21.02
2022-10-30T07:01:59.157Z,20.77
2022-10-30T07:04:41.010Z,20.30
2022-10-30T07:07:11.207Z,21.45
2022-10-30T07:09:42.215Z,20.73
2022-10-30T07:12:13.265Z,20.98
2022-10-30T07:14:52.676Z,21.60
2022-10-30T12:32:04.314Z,29.65
2022-10-30T12:34:55.572Z,28.53
2022-10-30T12:37:44.112Z,29.10
2022-10-30T12:40:20.257Z,26.77
2022-10-30T12:43:21.401Z,28.65
2022-10-30T12:45:55.716Z,29.10
2022-10-30T12:48:40.669Z,29.70
2022-10-30T12:51:23.882Z,28.60
2022-10-30T12:54:04.937Z,28.50
2022-10-30T12:56:41.294Z,29.73
2022-10-30T12:59:17.210Z,26.42
2022-10-30T13:02:23.952Z,26.92
2022-10-30T13:05:00.347Z,25.98
2022-10-30T13:07:52.449Z,25.60
2022-10-30T13:10:31.852Z,24.55
2022-10-30T13:13:11.600Z,24.63
2022-10-30T13:15:52.523Z,23.75
2022-10-30T13:18:29.598Z,23.95
2022-10-30T13:21:33.853Z,21.98
2022-10-30T13:24:22.835Z,23.60
2022-10-30T13:27:19.645Z,23.73
2022-10-30T13:29:57.846Z,24.33
2022-10-30T13:32:41.449Z,24.65
2022-10-30T13:35:31.807Z,23.27
2022-10-30T13:38:31.756Z,24.65
2022-10-30T13:41:29.549Z,24.52
2022-10-30T13:44:37.300Z,25.48
2022-10-30T13:47:43.298Z,25.13
2022-10-30T13:50:48.597Z,24.80
2022-10-30T13:53:26.168Z,23.83
2022-10-30T13:55:58.834Z,24.85
2022-10-30T13:58:42.186Z,24.77
2022-10-30T14:01:31.343Z,25.15
2022-10-30T14:04:13.551Z,24.48
2022-10-30T14:07:11.043Z,24.45
2022-10-30T14:09:54.071Z,25.30
2022-10-30T14:12:48.667Z,24.25
2022-10-30T14:15:46.971Z,24.20
2022-10-30T14:18:17.303Z,25.02
2022-10-30T14:20:49.579Z,24.15
2022-10-30T14:23:25.072Z,24.10
2022-10-30T14:26:13.593Z,24.60
2022-10-30T14:28:47.887Z,23.55
2022-10-30T14:31:34.785Z,23.63
2022-10-30T14:34:05.590Z,23.77
2022-10-30T14:36:41.875Z,23.80
2022-10-30T14:39:13.158Z,23.73
2022-10-30T14:42:21.141Z,24.77
2022-10-30T14:45:19.238Z,24.55
2022-10-30T14:48:02.545Z,24.35
2022-10-30T14:51:08.723Z,25.15
2022-10-30T14:53:57.390Z,23.35
2022-10-30T14:56:31.171Z,24.05
2022-10-30T14:59:16.528Z,28.77
2022-10-30T15:02:08.115Z,24.35
2022-10-30T15:04:41.851Z,24.42
2022-10-30T15:07:27.387Z,31.38
2022-10-30T15:10:19.070Z,27.75
2022-10-30T15:15:40.861Z,25.20
2022-10-30T15:20:44.067Z,24.52
2022-10-30T15:23:36.067Z,24.40
2022-10-30T15:26:10.706Z,24.95
2022-10-30T15:28:42.348Z,23.45
2022-10-30T15:31:26.380Z,23.80
2022-10-30T15:33:59.895Z,24.42
2022-10-30T15:36:44.613Z,26.08
2022-10-30T15:39:17.902Z,27.65
2022-10-30T15:42:00.015Z,27.00
2022-10-30T15:44:40.177Z,27.25
2022-10-30T15:47:20.986Z,28.88
2022-10-30T15:49:56.601Z,27.13
2022-10-30T15:52:32.080Z,25.88
2022-10-30T15:55:08.164Z,26.92
2022-10-30T15:58:03.028Z,26.45
2022-10-30T16:00:41.913Z,27.10
2022-10-30T16:03:16.064Z,25.52
2022-10-30T16:05:47.359Z,26.42
2022-10-30T16:08:29.832Z,27.25
2022-10-30T16:11:01.096Z,27.50
2022-10-30T16:16:06.582Z,27.58
2022-10-30T16:18:38.269Z,26.17
2022-10-30T16:21:11.316Z,26.35
2022-10-30T16:23:45.198Z,27.70
2022-10-30T16:26:41.844Z,27.13
2022-10-30T16:29:21.145Z,27.40
2022-10-30T16:31:53.590Z,26.58
2022-10-30T16:34:38.101Z,27.70
2022-10-30T16:37:14.107Z,26.27
2022-10-30T16:39:45.568Z,26.48
2022-10-30T16:42:24.074Z,27.45
2022-10-30T16:45:13.756Z,27.73
2022-10-30T16:47:50.342Z,28.40
2022-10-30T16:50:23.252Z,28.15
2022-10-30T16:52:54.237Z,27.98
2022-10-30T16:55:26.308Z,28.05
2022-10-30T16:58:00.048Z,27.65
2022-10-30T17:00:36.205Z,28.83
2022-10-30T17:03:13.728Z,28.58
2022-10-30T17:05:46.470Z,28.10
2022-10-30T17:08:19.725Z,28.92
2022-10-30T17:11:06.068Z,27.25
2022-10-30T17:13:49.522Z,27.95
2022-10-30T17:16:30.444Z,28.80
2022-10-30T17:19:03.277Z,26.88
2022-10-30T17:21:42.678Z,28.13
2022-10-30T17:24:23.185Z,29.00
2022-10-30T17:27:02.406Z,28.03
2022-10-30T17:29:45.012Z,27.83
2022-10-30T17:32:21.988Z,28.98
2022-10-30T17:35:15.752Z,28.85
2022-10-30T17:37:46.826Z,28.02
2022-10-30T17:40:18.237Z,27.05
2022-10-30T17:45:21.757Z,28.83
2022-10-30T17:47:52.454Z,28.92
2022-10-30T17:50:23.534Z,28.10
2022-10-30T17:52:53.761Z,29.33
2022-10-30T17:55:28.875Z,29.00
2022-10-30T17:57:59.155Z,28.30
2022-10-30T18:00:29.707Z,28.77
2022-10-30T18:03:00.335Z,28.33
2022-10-30T18:05:32.558Z,28.57
2022-10-30T18:08:03.550Z,29.45
2022-10-30T18:10:34.376Z,28.00
2022-10-30T18:13:04.759Z,28.02
2022-10-30T18:15:43.527Z,28.42
2022-10-30T18:18:14.231Z,30.08
2022-10-30T18:20:44.472Z,29.00
2022-10-30T18:26:19.575Z,29.75
2022-10-30T18:28:50.949Z,28.92
2022-10-30T18:33:53.478Z,29.55
2022-10-30T18:36:26.139Z,29.07
2022-10-30T18:38:59.076Z,27.95
2022-10-30T18:41:39.836Z,28.55
2022-10-30T18:44:10.990Z,27.30
2022-10-30T18:46:41.891Z,29.58
2022-10-30T18:49:13.018Z,29.48
2022-10-30T18:51:44.139Z,29.80
2022-10-30T18:54:17.742Z,28.13
2022-10-30T18:56:47.886Z,28.73
2022-10-30T18:59:17.964Z,30.20
2022-10-30T19:01:48.725Z,29.05
2022-10-30T19:06:53.308Z,29.20
2022-10-30T19:09:24.041Z,29.67
2022-10-30T19:11:54.144Z,30.63
2022-10-30T19:14:24.436Z,30.27
2022-10-30T19:16:55.131Z,30.03
2022-10-30T19:19:25.930Z,29.48
2022-10-30T19:21:56.205Z,30.05
2022-10-30T19:24:26.990Z,30.55
2022-10-30T19:26:57.675Z,29.90
2022-10-30T19:29:27.894Z,30.20
2022-10-30T19:31:57.923Z,30.13
2022-10-30T19:34:27.955Z,29.52
2022-10-30T19:36:58.617Z,30.75
2022-10-30T19:39:30.907Z,29.35
2022-10-30T19:42:01.162Z,30.55
2022-10-30T19:44:31.176Z,30.40
2022-10-30T19:47:01.704Z,31.33
2022-10-30T19:49:32.737Z,30.00
2022-10-30T19:52:03.017Z,29.98
2022-10-30T19:54:34.736Z,30.25
2022-10-30T19:57:05.568Z,30.50
2022-10-30T19:59:35.883Z,30.42
2022-10-30T20:02:06.173Z,30.02
2022-10-30T20:04:36.819Z,29.17
2022-10-30T20:07:07.100Z,30.05
2022-10-30T20:09:37.107Z,30.88
2022-10-30T20:12:09.000Z,30.33
2022-10-30T20:14:39.279Z,29.88
2022-10-30T20:17:10.029Z,30.90
2022-10-30T20:19:40.575Z,30.40
2022-10-30T20:22:13.805Z,30.83
2022-10-30T20:24:44.768Z,29.45
2022-10-30T20:27:15.800Z,30.73
2022-10-30T20:29:46.319Z,32.38
2022-10-30T20:32:17.082Z,30.55
2022-10-30T20:34:47.348Z,30.38
2022-10-30T20:37:17.359Z,29.98
2022-10-30T20:39:47.980Z,30.13
2022-10-30T20:42:24.930Z,30.63
2022-10-30T20:44:55.279Z,31.42
2022-10-30T20:47:25.594Z,30.45
2022-10-30T20:49:55.895Z,31.05
2022-10-30T20:52:26.398Z,30.60
2022-10-30T20:54:57.249Z,30.50
2022-10-30T20:57:27.778Z,31.80
2022-10-30T20:59:58.521Z,31.23
2022-10-30T21:02:29.011Z,31.58
2022-10-30T21:05:11.385Z,30.60
2022-10-30T21:07:48.457Z,30.88
2022-10-30T21:10:19.027Z,30.73
2022-10-30T21:12:50.137Z,31.33
2022-10-30T21:15:21.337Z,30.85
2022-10-30T21:20:22.559Z,31.17
2022-10-30T21:22:53.633Z,32.05
2022-10-30T21:25:24.449Z,32.13
2022-10-30T21:27:55.485Z,31.88
2022-10-30T21:30:25.812Z,32.28
2022-10-30T21:32:57.070Z,33.97
2022-10-30T21:35:27.567Z,33.33
2022-10-30T21:37:57.877Z,34.42
2022-10-30T21:40:28.718Z,33.58
2022-10-30T21:43:03.122Z,35.75
2022-10-30T21:45:34.809Z,34.40
2022-10-30T21:48:05.700Z,34.83
2022-10-30T21:50:36.282Z,34.10
2022-10-30T21:53:07.058Z,36.57
2022-10-30T21:55:40.881Z,37.70
2022-10-30T21:58:11.176Z,36.80
2022-10-30T22:00:41.280Z,35.80
2022-10-30T22:03:14.013Z,35.13
2022-10-30T22:05:44.771Z,37.60
2022-10-30T22:08:15.093Z,36.83
2022-10-30T22:10:45.475Z,36.72
2022-10-30T22:13:15.588Z,36.47
2022-10-30T22:15:46.476Z,36.80
2022-10-30T22:18:17.533Z,37.15
2022-10-30T22:20:48.699Z,38.08
2022-10-30T22:23:19.501Z,37.80
2022-10-30T22:26:00.636Z,37.63
2022-10-30T22:28:33.069Z,39.78
2022-10-30T22:31:11.709Z,37.33
2022-10-30T22:33:42.641Z,37.90
2022-10-30T22:36:24.089Z,37.58
2022-10-30T22:41:34.435Z,38.72
2022-10-30T22:44:13.226Z,38.10
2022-10-30T22:46:44.234Z,39.25
2022-10-30T22:49:14.748Z,38.90
2022-10-30T22:55:38.862Z,38.85
2022-10-30T22:58:09.659Z,43.08
2022-10-30T23:00:40.592Z,42.50
2022-10-30T23:03:10.857Z,42.60
2022-10-30T23:05:41.603Z,41.38
2022-10-30T23:08:11.887Z,42.17
2022-10-30T23:10:42.584Z,44.45
2022-10-30T23:13:12.878Z,42.63
2022-10-30T23:15:43.154Z,43.58
2022-10-30T23:18:13.982Z,43.75
2022-10-30T23:20:46.245Z,45.25
2022-10-30T23:23:17.327Z,44.78
2022-10-30T23:25:47.587Z,45.80
2022-10-30T23:28:18.109Z,43.50
2022-10-30T23:30:49.166Z,45.53
2022-10-30T23:33:19.423Z,44.38
2022-10-30T23:35:50.108Z,43.65
2022-10-30T23:38:20.881Z,44.17
2022-10-30T23:40:51.142Z,41.90
2022-10-30T23:43:21.870Z,41.42
2022-10-30T23:45:52.032Z,41.20
2022-10-30T23:48:22.906Z,40.58
2022-10-30T23:50:53.205Z,41.40
2022-10-30T23:53:23.566Z,40.67
2022-10-30T23:55:55.804Z,40.13
2022-10-30T23:58:26.125Z,41.30
